createdAt,value
2022-09-11T00:00:16.261Z,50.50
2022-09-11T00:02:45.168Z,50.63
2022-09-11T00:05:12.829Z,50.53
2022-09-11T00:07:40.461Z,50.66
2022-09-11T00:10:08.569Z,50.48
2022-09-11T00:12:36.169Z,50.64
2022-09-11T00:15:04.174Z,50.51
2022-09-11T00:17:31.740Z,50.64
2022-09-11T00:20:01.133Z,50.60
2022-09-11T00:22:28.882Z,50.61
2022-09-11T00:24:56.429Z,50.53
2022-09-11T00:27:24.113Z,50.51
2022-09-11T00:29:51.680Z,50.59
2022-09-11T00:32:19.214Z,50.61
2022-09-11T00:34:46.807Z,50.52
2022-09-11T00:37:15.717Z,50.50
2022-09-11T00:39:43.293Z,50.63
2022-09-11T00:42:11.609Z,50.60
2022-09-11T00:45:00.240Z,50.55
2022-09-11T00:47:27.885Z,50.48
2022-09-11T00:49:56.017Z,50.64
2022-09-11T00:52:27.071Z,50.46
2022-09-11T00:54:56.324Z,50.73
2022-09-11T00:57:24.854Z,50.71
2022-09-11T00:59:52.830Z,50.50
2022-09-11T01:02:23.270Z,50.62
2022-09-11T01:04:54.397Z,50.71
2022-09-11T01:07:22.000Z,50.69
2022-09-11T01:09:51.139Z,50.62
2022-09-11T01:12:20.766Z,50.63
2022-09-11T01:14:53.416Z,50.61
2022-09-11T01:17:24.525Z,50.56
2022-09-11T01:20:10.066Z,50.43
2022-09-11T01:22:47.050Z,50.73
2022-09-11T01:25:21.573Z,50.79
2022-09-11T01:27:51.162Z,50.67
2022-09-11T01:30:19.525Z,50.85
2022-09-11T01:32:59.159Z,50.79
2022-09-11T01:35:28.753Z,50.75
2022-09-11T01:37:58.274Z,50.80
2022-09-11T01:40:27.241Z,50.62
2022-09-11T01:43:00.797Z,50.75
2022-09-11T01:45:28.452Z,50.80
2022-09-11T01:47:56.007Z,50.81
2022-09-11T01:50:23.552Z,50.69
2022-09-11T01:52:53.156Z,50.87
2022-09-11T01:55:22.248Z,50.79
2022-09-11T01:57:51.163Z,51.01
2022-09-11T02:00:20.354Z,50.81
2022-09-11T02:02:49.326Z,50.75
2022-09-11T02:05:18.037Z,50.79
2022-09-11T02:07:47.717Z,50.89
2022-09-11T02:10:18.146Z,50.84
2022-09-11T02:12:48.741Z,50.87
2022-09-11T02:15:16.774Z,50.82
2022-09-11T02:17:49.100Z,50.78
2022-09-11T02:20:16.851Z,50.83
2022-09-11T02:22:44.537Z,50.85
2022-09-11T02:25:13.668Z,50.85
2022-09-11T02:27:41.198Z,50.88
2022-09-11T02:30:10.040Z,50.92
2022-09-11T02:32:37.836Z,50.78
2022-09-11T02:35:07.842Z,50.87
2022-09-11T02:37:42.013Z,50.92
2022-09-11T02:40:20.184Z,50.94
2022-09-11T02:43:06.192Z,51.02
2022-09-11T02:45:36.829Z,51.02
2022-09-11T02:48:15.915Z,50.84
2022-09-11T02:50:46.848Z,51.00
2022-09-11T02:53:16.536Z,50.86
2022-09-11T02:55:50.882Z,50.83
2022-09-11T02:58:20.641Z,51.01
2022-09-11T03:00:48.316Z,50.94
2022-09-11T03:03:15.940Z,50.87
2022-09-11T03:05:44.822Z,50.93
2022-09-11T03:08:12.349Z,50.96
2022-09-11T03:10:39.916Z,50.95
2022-09-11T03:13:07.452Z,50.91
2022-09-11T03:15:35.021Z,50.88
2022-09-11T03:18:05.036Z,50.91
2022-09-11T03:20:34.088Z,50.94
2022-09-11T03:23:09.504Z,50.93
2022-09-11T03:25:37.038Z,51.00
2022-09-11T03:28:04.649Z,50.93
2022-09-11T03:30:32.302Z,50.89
2022-09-11T03:33:00.592Z,50.86
2022-09-11T03:35:28.135Z,50.90
2022-09-11T03:37:55.946Z,51.00
2022-09-11T03:40:24.918Z,50.98
2022-09-11T03:42:52.949Z,50.98
2022-09-11T03:45:21.348Z,50.92
2022-09-11T03:47:48.989Z,50.94
2022-09-11T03:50:16.580Z,50.99
2022-09-11T03:52:44.368Z,50.88
2022-09-11T03:55:12.052Z,50.79
2022-09-11T03:57:40.962Z,51.01
2022-09-11T04:00:09.962Z,51.00
2022-09-11T04:02:37.524Z,50.94
2022-09-11T04:05:05.877Z,50.92
2022-09-11T04:07:34.572Z,50.86
2022-09-11T04:10:02.117Z,50.83
2022-09-11T04:12:29.722Z,50.94
2022-09-11T04:14:58.601Z,50.86
2022-09-11T04:17:26.160Z,50.90
2022-09-11T04:19:53.804Z,50.89
2022-09-11T04:22:21.338Z,50.85
2022-09-11T04:24:48.926Z,50.90
2022-09-11T04:27:17.752Z,50.84
2022-09-11T04:29:46.080Z,50.82
2022-09-11T04:32:14.996Z,50.84
2022-09-11T04:34:42.521Z,50.78
2022-09-11T04:37:11.480Z,50.79
2022-09-11T04:39:39.265Z,50.79
2022-09-11T04:42:08.971Z,50.84
2022-09-11T04:44:36.534Z,50.93
2022-09-11T04:47:04.211Z,50.75
2022-09-11T04:49:33.328Z,50.83
2022-09-11T04:52:02.799Z,50.78
2022-09-11T04:54:30.358Z,50.85
2022-09-11T04:56:57.893Z,50.91
2022-09-11T04:59:25.420Z,50.69
2022-09-11T05:01:54.407Z,50.89
2022-09-11T05:04:25.981Z,50.92
2022-09-11T05:06:55.437Z,50.85
2022-09-11T05:09:23.019Z,50.94
2022-09-11T05:11:50.580Z,50.77
2022-09-11T05:14:18.265Z,50.87
2022-09-11T05:16:46.034Z,50.77
2022-09-11T05:19:13.641Z,51.12
2022-09-11T05:21:41.485Z,50.82
2022-09-11T05:24:10.625Z,50.81
2022-09-11T05:26:38.517Z,50.95
2022-09-11T05:29:07.145Z,50.80
2022-09-11T05:31:34.873Z,50.80
2022-09-11T05:34:03.159Z,50.75
2022-09-11T05:36:31.713Z,50.91
2022-09-11T05:38:59.395Z,50.95
2022-09-11T05:41:28.373Z,50.85
2022-09-11T05:43:55.933Z,50.97
2022-09-11T05:46:23.445Z,51.01
2022-09-11T05:48:50.955Z,50.80
2022-09-11T05:51:21.309Z,50.81
2022-09-11T05:53:50.410Z,50.84
2022-09-11T05:56:19.066Z,50.93
2022-09-11T05:58:48.550Z,51.02
2022-09-11T06:01:17.069Z,50.84
2022-09-11T06:03:44.853Z,51.03
2022-09-11T06:06:13.249Z,50.93
2022-09-11T06:08:42.674Z,51.01
2022-09-11T06:11:10.961Z,50.97
2022-09-11T06:13:39.780Z,50.88
2022-09-11T06:16:09.938Z,51.03
2022-09-11T06:18:37.545Z,50.96
2022-09-11T06:21:07.026Z,51.21
2022-09-11T06:23:34.682Z,51.13
2022-09-11T06:26:05.542Z,51.12
2022-09-11T06:28:33.081Z,51.06
2022-09-11T06:31:02.262Z,51.04
2022-09-11T06:33:34.414Z,51.09
2022-09-11T06:36:03.991Z,51.07
2022-09-11T06:38:31.814Z,51.10
2022-09-11T06:40:59.969Z,51.06
2022-09-11T06:43:27.462Z,51.10
2022-09-11T06:45:55.115Z,51.16
2022-09-11T06:48:22.799Z,51.10
2022-09-11T06:50:51.677Z,51.21
2022-09-11T06:53:19.325Z,51.25
2022-09-11T06:55:46.832Z,51.05
2022-09-11T06:58:14.354Z,51.25
2022-09-11T07:00:41.916Z,51.37
2022-09-11T07:03:09.732Z,51.06
2022-09-11T07:05:37.277Z,51.23
2022-09-11T07:08:06.474Z,51.22
2022-09-11T07:10:34.163Z,51.34
2022-09-11T07:13:01.691Z,51.37
2022-09-11T07:15:29.210Z,51.30
2022-09-11T07:17:56.724Z,51.26
2022-09-11T07:20:24.292Z,51.33
2022-09-11T07:22:51.800Z,51.39
2022-09-11T07:25:20.685Z,51.46
2022-09-11T07:27:48.206Z,51.41
2022-09-11T07:30:15.992Z,51.43
2022-09-11T07:32:43.570Z,51.50
2022-09-11T07:35:11.222Z,51.49
2022-09-11T07:37:38.755Z,51.36
2022-09-11T07:40:06.983Z,51.57
2022-09-11T07:42:36.000Z,51.66
2022-09-11T07:45:03.570Z,51.56
2022-09-11T07:47:33.777Z,51.54
2022-09-11T07:50:01.321Z,51.52
2022-09-11T07:52:28.870Z,51.56
2022-09-11T07:54:56.444Z,51.69
2022-09-11T07:57:24.205Z,51.72
2022-09-11T07:59:53.105Z,51.67
2022-09-11T08:02:20.673Z,51.55
2022-09-11T08:04:48.274Z,51.52
2022-09-11T08:07:16.497Z,51.64
2022-09-11T08:09:44.048Z,51.69
2022-09-11T08:12:11.982Z,51.73
2022-09-11T08:14:39.549Z,51.70
2022-09-11T08:17:08.448Z,51.53
2022-09-11T08:19:36.052Z,51.41
2022-09-11T08:22:03.979Z,51.28
2022-09-11T08:24:31.488Z,51.03
2022-09-11T08:26:59.032Z,50.86
2022-09-11T08:29:26.684Z,50.73
2022-09-11T08:31:54.235Z,50.69
2022-09-11T08:34:23.221Z,50.45
2022-09-11T08:36:51.943Z,50.39
2022-09-11T08:39:20.299Z,50.22
2022-09-11T08:41:49.111Z,50.28
2022-09-11T08:44:19.365Z,49.94
2022-09-11T08:46:48.941Z,49.93
2022-09-11T08:49:19.842Z,49.78
2022-09-11T08:51:49.904Z,49.80
2022-09-11T08:54:23.843Z,49.53
2022-09-11T08:56:51.484Z,49.54
2022-09-11T08:59:21.832Z,49.67
2022-09-11T09:01:53.531Z,49.60
2022-09-11T09:04:41.409Z,49.46
2022-09-11T09:07:14.578Z,49.43
2022-09-11T09:09:45.283Z,49.18
2022-09-11T09:12:16.029Z,50.42
2022-09-11T09:14:51.265Z,50.51
2022-09-11T09:17:19.937Z,50.49
2022-09-11T09:19:48.972Z,50.58
2022-09-11T09:22:19.884Z,50.90
2022-09-11T09:24:49.933Z,51.24
2022-09-11T09:27:19.986Z,51.66
2022-09-11T09:29:47.732Z,51.59
2022-09-11T09:32:20.961Z,51.44
2022-09-11T09:34:48.504Z,51.77
2022-09-11T09:37:18.951Z,52.00
2022-09-11T09:39:46.534Z,52.18
2022-09-11T09:42:34.580Z,52.19
2022-09-11T09:45:18.943Z,52.27
2022-09-11T09:47:46.649Z,52.37
2022-09-11T09:50:18.234Z,52.58
2022-09-11T09:52:47.586Z,52.92
2022-09-11T09:55:16.493Z,52.32
2022-09-11T09:57:44.289Z,52.88
2022-09-11T10:00:17.286Z,53.45
2022-09-11T10:02:49.098Z,53.38
2022-09-11T10:05:18.953Z,53.60
2022-09-11T10:07:53.083Z,54.11
2022-09-11T10:10:26.566Z,53.95
2022-09-11T10:13:17.304Z,54.15
2022-09-11T10:15:43.159Z,53.93
2022-09-11T10:18:24.438Z,53.96
2022-09-11T10:20:52.616Z,53.93
2022-09-11T10:23:25.740Z,54.26
2022-09-11T10:25:53.305Z,54.04
2022-09-11T10:28:25.493Z,53.61
2022-09-11T10:30:57.893Z,54.20
2022-09-11T10:33:28.316Z,54.42
2022-09-11T10:35:56.322Z,54.16
2022-09-11T10:38:28.025Z,55.73
2022-09-11T10:41:18.843Z,55.76
2022-09-11T10:43:48.487Z,56.50
2022-09-11T10:46:38.997Z,54.97
2022-09-11T10:49:20.126Z,57.22
2022-09-11T10:52:02.123Z,58.13
2022-09-11T10:54:39.420Z,60.77
2022-09-11T10:57:13.169Z,58.01
2022-09-11T10:59:45.955Z,56.44
2022-09-11T11:02:19.305Z,57.96
2022-09-11T11:04:46.889Z,57.79
2022-09-11T11:07:20.929Z,56.84
2022-09-11T11:09:56.158Z,56.72
2022-09-11T11:12:33.009Z,55.61
2022-09-11T11:15:13.606Z,57.65
2022-09-11T11:17:43.476Z,56.55
2022-09-11T11:20:17.705Z,56.52
2022-09-11T11:22:56.158Z,55.86
2022-09-11T11:25:27.345Z,55.84
2022-09-11T11:28:06.428Z,56.20
2022-09-11T11:30:35.106Z,56.62
2022-09-11T11:33:23.776Z,56.38
2022-09-11T11:35:55.688Z,56.04
2022-09-11T11:38:24.794Z,55.65
2022-09-11T11:40:55.749Z,56.13
2022-09-11T11:43:24.489Z,56.73
2022-09-11T11:45:53.504Z,55.58
2022-09-11T11:48:23.745Z,55.64
2022-09-11T11:51:11.858Z,55.00
2022-09-11T11:54:01.386Z,54.56
2022-09-11T11:56:33.849Z,54.85
2022-09-11T11:59:03.764Z,54.92
2022-09-11T12:01:36.927Z,54.72
2022-09-11T12:04:06.026Z,55.17
2022-09-11T12:06:33.565Z,55.64
2022-09-11T12:09:01.092Z,56.66
2022-09-11T12:11:31.776Z,57.59
2022-09-11T12:13:59.498Z,57.90
2022-09-11T12:16:29.069Z,57.93
2022-09-11T12:19:07.827Z,59.44
2022-09-11T12:21:42.745Z,59.69
2022-09-11T12:24:13.985Z,61.88
2022-09-11T12:26:48.763Z,63.17
2022-09-11T12:29:43.790Z,62.77
2022-09-11T12:32:42.998Z,62.67
2022-09-11T12:35:22.313Z,63.26
2022-09-11T12:37:54.341Z,62.70
2022-09-11T12:40:24.929Z,61.83
2022-09-11T12:42:58.861Z,64.29
2022-09-11T12:45:35.447Z,64.57
2022-09-11T12:48:05.333Z,63.93
2022-09-11T12:50:33.174Z,64.16
2022-09-11T12:53:02.400Z,64.94
2022-09-11T12:55:33.112Z,64.78
2022-09-11T12:58:03.509Z,65.05
2022-09-11T13:00:36.445Z,65.74
2022-09-11T13:03:03.976Z,65.56
2022-09-11T13:05:34.449Z,65.44
2022-09-11T13:08:04.197Z,65.45
2022-09-11T13:10:35.054Z,65.10
2022-09-11T13:13:05.409Z,64.97
2022-09-11T13:15:35.638Z,65.02
2022-09-11T13:18:16.333Z,63.49
2022-09-11T13:20:43.884Z,64.77
2022-09-11T13:23:16.095Z,64.40
2022-09-11T13:25:43.679Z,64.27
2022-09-11T13:28:17.362Z,64.08
2022-09-11T13:30:52.681Z,63.99
2022-09-11T13:33:23.891Z,63.72
2022-09-11T13:35:51.436Z,63.58
2022-09-11T13:38:19.465Z,63.22
2022-09-11T13:40:48.710Z,63.13
2022-09-11T13:43:18.820Z,62.93
2022-09-11T13:45:47.442Z,62.78
2022-09-11T13:48:21.157Z,62.56
2022-09-11T13:50:49.576Z,62.62
2022-09-11T13:53:17.214Z,62.68
2022-09-11T13:55:46.740Z,62.46
2022-09-11T13:58:23.134Z,62.15
2022-09-11T14:00:50.858Z,62.19
2022-09-11T14:03:21.484Z,61.85
2022-09-11T14:05:50.481Z,61.73
2022-09-11T14:08:24.923Z,62.13
2022-09-11T14:10:53.450Z,61.71
2022-09-11T14:13:23.264Z,61.77
2022-09-11T14:15:52.873Z,61.62
2022-09-11T14:18:25.362Z,61.56
2022-09-11T14:20:53.376Z,61.17
2022-09-11T14:23:22.808Z,60.82
2022-09-11T14:26:07.286Z,60.94
2022-09-11T14:28:37.980Z,61.04
2022-09-11T14:31:07.468Z,60.21
2022-09-11T14:33:35.069Z,60.50
2022-09-11T14:36:07.596Z,59.99
2022-09-11T14:38:36.168Z,60.04
2022-09-11T14:41:04.013Z,60.48
2022-09-11T14:43:32.769Z,59.61
2022-09-11T14:46:02.270Z,59.62
2022-09-11T14:48:30.386Z,59.87
2022-09-11T14:50:58.154Z,59.66
2022-09-11T14:53:30.364Z,59.79
2022-09-11T14:55:58.493Z,59.39
2022-09-11T14:58:26.419Z,59.53
2022-09-11T15:00:54.010Z,59.20
2022-09-11T15:03:24.397Z,59.21
2022-09-11T15:05:54.592Z,59.04
2022-09-11T15:08:22.092Z,59.38
2022-09-11T15:10:49.746Z,58.82
2022-09-11T15:13:17.247Z,59.24
2022-09-11T15:15:45.174Z,59.11
2022-09-11T15:18:12.708Z,59.13
2022-09-11T15:20:41.613Z,58.77
2022-09-11T15:23:09.178Z,58.89
2022-09-11T15:25:36.758Z,58.72
2022-09-11T15:28:06.413Z,58.56
2022-09-11T15:30:34.132Z,58.72
2022-09-11T15:33:01.807Z,58.77
2022-09-11T15:35:32.780Z,58.52
2022-09-11T15:38:04.312Z,59.07
2022-09-11T15:40:32.470Z,59.37
2022-09-11T15:43:00.005Z,59.37
2022-09-11T15:45:27.617Z,59.49
2022-09-11T15:47:55.219Z,59.31
2022-09-11T15:50:28.183Z,59.16
2022-09-11T15:52:55.763Z,58.94
2022-09-11T15:55:26.507Z,58.89
2022-09-11T15:57:54.059Z,58.84
2022-09-11T16:00:21.945Z,58.74
2022-09-11T16:02:52.131Z,58.25
2022-09-11T16:05:19.673Z,58.57
2022-09-11T16:07:47.686Z,59.03
2022-09-11T16:10:15.199Z,59.13
2022-09-11T16:12:46.274Z,59.14
2022-09-11T16:15:13.862Z,58.49
2022-09-11T16:17:41.441Z,58.42
2022-09-11T16:20:09.981Z,57.81
2022-09-11T16:22:38.086Z,57.44
2022-09-11T16:25:06.229Z,57.55
2022-09-11T16:27:34.569Z,57.37
2022-09-11T16:32:51.556Z,57.10
2022-09-11T16:35:19.941Z,56.66
2022-09-11T16:37:48.382Z,56.15
2022-09-11T16:40:16.026Z,56.00
2022-09-11T16:42:43.588Z,55.56
2022-09-11T16:45:12.504Z,55.20
2022-09-11T16:47:40.045Z,54.94
2022-09-11T16:50:08.529Z,54.70
2022-09-11T16:52:36.403Z,54.30
2022-09-11T16:55:04.145Z,54.26
2022-09-11T16:57:32.496Z,54.16
2022-09-11T17:00:00.182Z,53.86
2022-09-11T17:02:29.115Z,53.41
2022-09-11T17:04:56.665Z,53.43
2022-09-11T17:07:24.678Z,53.33
2022-09-11T17:09:52.252Z,53.10
2022-09-11T17:12:21.151Z,53.20
2022-09-11T17:14:49.281Z,52.77
2022-09-11T17:17:16.804Z,53.09
2022-09-11T17:19:45.657Z,52.88
2022-09-11T17:22:15.087Z,52.63
2022-09-11T17:24:42.624Z,52.66
2022-09-11T17:27:10.168Z,52.67
2022-09-11T17:29:41.199Z,52.55
2022-09-11T17:32:27.222Z,52.41
2022-09-11T17:34:58.261Z,52.21
2022-09-11T17:37:26.357Z,52.22
2022-09-11T17:39:53.937Z,52.00
2022-09-11T17:42:22.526Z,52.19
2022-09-11T17:44:50.084Z,51.97
2022-09-11T17:47:17.636Z,51.89
2022-09-11T17:49:45.213Z,51.92
2022-09-11T17:52:15.476Z,51.83
2022-09-11T17:54:43.214Z,51.90
2022-09-11T17:57:11.864Z,52.46
2022-09-11T17:59:39.543Z,52.07
2022-09-11T18:02:07.345Z,52.03
2022-09-11T18:04:34.871Z,51.69
2022-09-11T18:07:03.501Z,52.22
2022-09-11T18:09:32.361Z,52.35
2022-09-11T18:11:59.900Z,52.41
2022-09-11T18:14:27.853Z,51.82
2022-09-11T18:16:55.409Z,51.86
2022-09-11T18:19:22.935Z,51.94
2022-09-11T18:21:50.736Z,52.18
2022-09-11T18:24:19.858Z,52.10
2022-09-11T18:26:49.979Z,52.37
2022-09-11T18:29:19.941Z,52.41
2022-09-11T18:31:50.157Z,52.54
2022-09-11T18:34:18.802Z,52.53
2022-09-11T18:36:46.674Z,52.56
2022-09-11T18:39:14.659Z,52.89
2022-09-11T18:41:44.199Z,53.13
2022-09-11T18:44:18.794Z,53.22
2022-09-11T18:46:47.449Z,53.10
2022-09-11T18:49:15.437Z,53.24
2022-09-11T18:51:43.101Z,53.53
2022-09-11T18:54:13.102Z,53.54
2022-09-11T18:57:00.215Z,53.57
2022-09-11T18:59:52.165Z,53.42
2022-09-11T19:02:19.860Z,53.51
2022-09-11T19:04:47.405Z,53.91
2022-09-11T19:07:15.811Z,53.88
2022-09-11T19:09:46.038Z,54.04
2022-09-11T19:12:15.789Z,53.93
2022-09-11T19:14:43.357Z,54.12
2022-09-11T19:17:12.520Z,54.14
2022-09-11T19:19:40.088Z,54.38
2022-09-11T19:22:07.708Z,54.05
2022-09-11T19:24:35.552Z,54.09
2022-09-11T19:27:03.216Z,54.13
2022-09-11T19:29:30.873Z,54.31
2022-09-11T19:32:00.195Z,54.66
2022-09-11T19:34:29.729Z,54.29
2022-09-11T19:36:57.481Z,54.39
2022-09-11T19:39:25.008Z,54.30
2022-09-11T19:41:52.561Z,54.50
2022-09-11T19:44:20.961Z,54.42
2022-09-11T19:46:49.919Z,54.70
2022-09-11T19:49:17.809Z,54.58
2022-09-11T19:51:46.762Z,54.58
2022-09-11T19:54:14.763Z,54.41
2022-09-11T19:56:44.279Z,54.55
2022-09-11T19:59:12.530Z,54.55
2022-09-11T20:01:40.118Z,54.75
2022-09-11T20:04:07.755Z,54.73
2022-09-11T20:06:35.471Z,54.82
2022-09-11T20:11:52.232Z,54.82
2022-09-11T20:14:19.821Z,54.92
2022-09-11T20:16:47.353Z,54.88
2022-09-11T20:19:15.032Z,54.83
2022-09-11T20:21:42.757Z,54.98
2022-09-11T20:24:11.681Z,54.87
2022-09-11T20:26:39.208Z,54.94
2022-09-11T20:29:07.793Z,54.84
2022-09-11T20:31:41.210Z,54.94
2022-09-11T20:34:13.821Z,54.90
2022-09-11T20:36:41.338Z,55.01
2022-09-11T20:39:08.872Z,55.01
2022-09-11T20:41:38.161Z,55.14
2022-09-11T20:44:05.709Z,54.97
2022-09-11T20:46:33.268Z,55.00
2022-09-11T20:49:01.009Z,54.89
2022-09-11T20:51:28.657Z,54.91
2022-09-11T20:53:56.269Z,55.06
2022-09-11T20:56:24.025Z,54.98
2022-09-11T20:58:53.104Z,54.95
2022-09-11T21:01:22.016Z,54.96
2022-09-11T21:03:50.457Z,55.08
2022-09-11T21:06:22.053Z,54.92
2022-09-11T21:08:52.669Z,55.08
2022-09-11T21:11:20.196Z,54.89
2022-09-11T21:13:47.754Z,54.99
2022-09-11T21:16:16.881Z,55.06
2022-09-11T21:18:46.524Z,55.16
2022-09-11T21:21:14.070Z,55.02
2022-09-11T21:23:41.576Z,55.19
2022-09-11T21:26:09.516Z,55.12
2022-09-11T21:28:37.074Z,55.12
2022-09-11T21:31:04.927Z,55.05
2022-09-11T21:33:34.970Z,55.20
2022-09-11T21:36:03.020Z,55.00
2022-09-11T21:38:30.848Z,55.07
2022-09-11T21:40:59.080Z,55.23
2022-09-11T21:43:26.699Z,55.04
2022-09-11T21:45:54.253Z,55.19
2022-09-11T21:48:21.760Z,55.06
2022-09-11T21:50:50.855Z,55.23
2022-09-11T21:53:18.467Z,54.92
2022-09-11T21:55:46.749Z,55.10
2022-09-11T21:58:15.671Z,55.08
2022-09-11T22:00:43.598Z,55.18
2022-09-11T22:03:11.935Z,55.10
2022-09-11T22:05:40.840Z,55.25
2022-09-11T22:08:10.355Z,55.06
2022-09-11T22:10:41.944Z,55.06
2022-09-11T22:13:09.960Z,55.04
2022-09-11T22:15:40.501Z,55.06
2022-09-11T22:18:08.097Z,54.87
2022-09-11T22:20:35.662Z,55.18
2022-09-11T22:23:03.228Z,54.97
2022-09-11T22:25:32.778Z,54.97
2022-09-11T22:28:00.422Z,55.07
2022-09-11T22:30:29.555Z,55.12
2022-09-11T22:32:57.076Z,55.19
2022-09-11T22:35:24.614Z,54.96
2022-09-11T22:37:52.155Z,54.84
2022-09-11T22:40:19.862Z,55.19
2022-09-11T22:42:49.737Z,55.08
2022-09-11T22:45:17.324Z,55.07
2022-09-11T22:47:44.851Z,55.00
2022-09-11T22:50:13.166Z,54.98
2022-09-11T22:52:41.290Z,55.00
2022-09-11T22:55:10.144Z,55.04
2022-09-11T22:57:37.900Z,54.99
2022-09-11T23:00:07.979Z,55.06
2022-09-11T23:02:35.960Z,54.89
2022-09-11T23:05:21.057Z,54.97
2022-09-11T23:07:49.428Z,54.91
2022-09-11T23:10:17.243Z,54.96
2022-09-11T23:12:45.185Z,54.89
2022-09-11T23:15:14.098Z,54.82
2022-09-11T23:17:41.649Z,54.93
2022-09-11T23:20:09.689Z,54.79
2022-09-11T23:22:37.319Z,54.84
2022-09-11T23:25:05.185Z,54.82
2022-09-11T23:27:32.836Z,54.93
2022-09-11T23:30:00.437Z,54.83
2022-09-11T23:32:29.295Z,54.96
2022-09-11T23:34:56.858Z,54.75
2022-09-11T23:37:24.469Z,54.84
2022-09-11T23:39:52.045Z,54.63
2022-09-11T23:42:19.639Z,54.69
2022-09-11T23:44:47.181Z,54.73
2022-09-11T23:47:14.743Z,54.77
2022-09-11T23:49:43.823Z,54.64
2022-09-11T23:52:11.392Z,54.74
2022-09-11T23:54:39.046Z,54.73
2022-09-11T23:57:06.630Z,54.70
2022-09-11T23:59:36.242Z,54.83
